Time;durP1;ratioP1;P1;durP2;ratioP2;P2;SDS_P1;SDS_P2;PMS_P1;PMS_P2;Temp;Humidity;BMP_temperature;BMP_pressure;BME280_temperature;BME280_humidity;BME280_pressure;Samples;Min_cycle;Max_cycle;Signal;HPM_P1;HPM_P2
2024/03/13 00:00:17;;;;;;;37.80;19.67;;;;;;;7.60;100.00;100348.31;5123639;27;20047;-74
2024/03/13 00:02:53;;;;;;;41.30;20.83;;;;;;;7.62;100.00;100335.97;5106963;27;20039;-73
2024/03/13 00:05:22;;;;;;;39.92;19.60;;;;;;;7.66;100.00;100348.97;5123315;27;20039;-74
2024/03/13 00:07:54;;;;;;;36.25;18.35;;;;;;;7.67;100.00;100348.06;5118386;27;20199;-74
2024/03/13 00:10:24;;;;;;;37.50;18.45;;;;;;;7.67;100.00;100348.06;5124216;27;20051;-73
2024/03/13 00:12:52;;;;;;;35.35;19.00;;;;;;;7.67;100.00;100348.06;5122247;27;20047;-74
2024/03/13 00:15:21;;;;;;;34.40;18.75;;;;;;;7.63;100.00;100346.44;5093390;27;20130;-74
2024/03/13 00:17:52;;;;;;;35.78;18.85;;;;;;;7.63;100.00;100335.03;5114674;27;20055;-74
2024/03/13 00:20:19;;;;;;;33.50;18.00;;;;;;;7.64;100.00;100342.03;5127131;27;20143;-75
2024/03/13 00:22:48;;;;;;;37.25;19.77;;;;;;;7.45;100.00;100306.72;5099375;27;20039;-73
2024/03/13 00:25:19;;;;;;;39.30;20.20;;;;;;;7.66;100.00;100350.75;5091015;27;20043;-74
2024/03/13 00:27:47;;;;;;;38.13;20.27;;;;;;;7.30;100.00;100287.91;5110543;27;20039;-73
2024/03/13 00:30:16;;;;;;;35.20;19.65;;;;;;;7.54;100.00;100327.47;5122506;27;20043;-73
2024/03/13 00:32:44;;;;;;;36.92;20.13;;;;;;;7.59;100.00;100339.56;5097396;27;20035;-74
2024/03/13 00:35:14;;;;;;;37.60;20.08;;;;;;;7.65;100.00;100347.25;5102357;27;20055;-73
2024/03/13 00:37:41;;;;;;;35.95;18.63;;;;;;;7.65;100.00;100335.84;5115022;27;20039;-73
2024/03/13 00:40:10;;;;;;;29.70;16.48;;;;;;;7.64;100.00;100340.25;5088807;27;20039;-72
2024/03/13 00:42:42;;;;;;;30.95;16.48;;;;;;;7.64;100.00;100334.13;5127686;27;20088;-74
2024/03/13 00:45:10;;;;;;;31.55;16.35;;;;;;;7.64;100.00;100336.75;5107243;27;20134;-74
2024/03/13 00:47:38;;;;;;;30.77;16.42;;;;;;;7.40;100.00;100294.56;5106673;27;20039;-74
2024/03/13 00:50:09;;;;;;;30.35;16.00;;;;;;;7.65;100.00;100338.50;5104807;27;20054;-74
2024/03/13 00:52:38;;;;;;;;;;;;;;;7.67;100.00;100339.28;5097714;27;20031;-73
2024/03/13 00:55:10;;;;;;;26.80;14.73;;;;;;;7.60;100.00;100330.72;5119005;27;19927;-74
2024/03/13 00:57:46;;;;;;;26.98;14.77;;;;;;;7.64;100.00;100339.41;5094764;27;20108;-74
2024/03/13 01:00:18;;;;;;;28.23;14.55;;;;;;;7.61;100.00;100340.38;5122252;27;20047;-74
2024/03/13 01:02:46;;;;;;;25.50;13.73;;;;;;;7.38;100.00;100301.69;5085675;27;20043;-74
2024/03/13 01:05:15;;;;;;;25.23;13.60;;;;;;;7.54;100.00;100336.25;5125169;27;20500;-74
2024/03/13 01:07:44;;;;;;;22.42;12.90;;;;;;;7.58;100.00;100334.34;5108948;27;20062;-73
2024/03/13 01:10:13;;;;;;;23.23;12.80;;;;;;;7.61;100.00;100328.97;5118308;27;20035;-74
2024/03/13 01:12:42;;;;;;;20.85;12.55;;;;;;;7.50;100.00;100313.53;5104840;27;20040;-74
2024/03/13 01:15:10;;;;;;;26.73;14.40;;;;;;;7.50;100.00;100316.19;5120472;27;20126;-74
2024/03/13 01:17:40;;;;;;;26.25;15.18;;;;;;;7.59;100.00;100328.16;5120277;27;20046;-73
2024/03/13 01:20:09;;;;;;;30.60;15.75;;;;;;;7.55;100.00;100334.47;5120856;27;20130;-73
2024/03/13 01:22:37;;;;;;;29.80;16.38;;;;;;;7.24;100.00;100285.47;5132657;27;20616;-75
2024/03/13 01:25:06;;;;;;;34.40;16.65;;;;;;;7.42;100.00;100315.56;5118935;27;20047;-73
2024/03/13 01:27:34;;;;;;;29.92;15.55;;;;;;;7.39;100.00;100319.22;5113695;27;20089;-74
2024/03/13 01:30:05;;;;;;;31.10;16.40;;;;;;;7.44;100.00;100320.78;5105556;27;20043;-74
2024/03/13 01:32:33;;;;;;;;;;;;;;;7.42;100.00;100314.72;5121313;27;20123;-73
2024/03/13 01:35:01;;;;;;;27.63;14.75;;;;;;;7.44;100.00;100316.38;5118456;27;19969;-74
2024/03/13 01:40:19;;;;;;;29.52;15.75;;;;;;;7.48;100.00;100307.47;5119498;27;20047;-74
2024/03/13 01:57:14;;;;;;;20.92;12.50;;;;;;;7.52;100.00;100306.44;5123436;27;20043;-74
2024/03/13 02:02:21;;;;;;;24.33;13.70;;;;;;;7.55;100.00;100308.97;5131395;27;20045;-73
2024/03/13 02:02:42;;;;;;;21.75;12.48;;;;;;;7.38;100.00;100264.78;5135747;27;20082;-75
2024/03/13 02:05:15;;;;;;;20.52;12.57;;;;;;;7.54;100.00;100290.59;5107990;27;20043;-73
2024/03/13 02:07:43;;;;;;;22.08;11.82;;;;;;;7.43;100.00;100261.13;5122874;27;20130;-74
2024/03/13 02:10:11;;;;;;;22.35;11.95;;;;;;;7.65;100.00;100296.31;5107360;27;20047;-73
2024/03/13 02:12:39;;;;;;;21.83;12.48;;;;;;;7.42;100.00;100260.25;5114101;27;20194;-74
2024/03/13 02:15:07;;;;;;;21.33;11.88;;;;;;;7.63;100.00;100296.38;5130954;27;20042;-73
2024/03/13 02:17:38;;;;;;;17.70;11.85;;;;;;;7.63;100.00;100300.78;5138003;27;20050;-75
2024/03/13 02:20:07;;;;;;;19.02;11.07;;;;;;;7.63;100.00;100295.50;5121657;27;20057;-75
2024/03/13 02:22:38;;;;;;;18.13;11.90;;;;;;;7.61;100.00;100281.53;5129636;27;20085;-74
2024/03/13 02:25:08;;;;;;;18.88;11.10;;;;;;;7.56;100.00;100272.91;5104347;27;20457;-74
2024/03/13 02:27:36;;;;;;;16.52;10.77;;;;;;;7.13;100.00;100216.53;5110807;27;20042;-75
2024/03/13 02:30:05;;;;;;;16.48;10.10;;;;;;;7.58;100.00;100284.28;5103475;27;20067;-75
2024/03/13 02:32:33;;;;;;;17.90;10.95;;;;;;;6.98;100.00;100178.44;5080781;27;20066;-74
2024/03/13 02:35:03;;;;;;;16.33;11.10;;;;;;;7.29;100.00;100230.00;5087039;28;20047;-74
2024/03/13 02:37:31;;;;;;;14.23;8.98;;;;;;;7.61;100.00;100290.28;5089960;27;20105;-75
2024/03/13 02:39:59;;;;;;;15.32;9.80;;;;;;;7.59;100.00;100278.09;5103169;27;20119;-76
2024/03/13 02:42:30;;;;;;;17.83;9.57;;;;;;;7.48;100.00;100260.03;5100363;27;20088;-76
2024/03/13 02:44:59;;;;;;;16.42;10.52;;;;;;;7.56;100.00;100283.47;5103369;27;20063;-75
2024/03/13 02:47:27;;;;;;;16.15;10.43;;;;;;;7.33;100.00;100253.56;5107818;27;20045;-75
2024/03/13 02:49:55;;;;;;;16.33;10.18;;;;;;;7.36;100.00;100263.13;5106648;27;20043;-75
2024/03/13 02:52:24;;;;;;;16.70;10.00;;;;;;;6.82;100.00;100171.16;5082794;27;20035;-74
2024/03/13 02:54:52;;;;;;;14.90;9.30;;;;;;;7.56;100.00;100294.00;5084173;27;20107;-74
2024/03/13 02:57:21;;;;;;;16.73;9.57;;;;;;;7.29;100.00;100262.47;5088081;27;20521;-74
2024/03/13 02:59:50;;;;;;;15.85;9.93;;;;;;;7.42;100.00;100280.47;5088612;27;20040;-75
2024/03/13 03:02:19;;;;;;;15.80;9.43;;;;;;;7.50;100.00;100299.50;5085071;27;20043;-75
2024/03/13 03:04:47;;;;;;;14.18;9.13;;;;;;;7.56;100.00;100294.00;5086470;27;20135;-75
2024/03/13 03:07:16;;;;;;;15.15;9.27;;;;;;;7.55;100.00;100300.22;5089558;27;20509;-74
2024/03/13 03:09:44;;;;;;;15.30;9.10;;;;;;;7.44;100.00;100282.13;5105407;27;20046;-75
2024/03/13 03:12:13;;;;;;;14.65;9.52;;;;;;;7.59;100.00;100288.63;5078427;27;20425;-74
2024/03/13 03:14:41;;;;;;;16.45;9.43;;;;;;;6.82;100.00;100164.09;5104205;27;20135;-74
2024/03/13 03:17:10;;;;;;;14.57;8.95;;;;;;;7.60;100.00;100292.97;5088377;27;20043;-75
2024/03/13 03:19:38;;;;;;;15.10;9.02;;;;;;;7.33;100.00;100263.22;5087719;27;20047;-75
2024/03/13 03:22:08;;;;;;;18.85;9.90;;;;;;;7.52;100.00;100295.91;5080244;27;20053;-74
2024/03/13 03:24:36;;;;;;;16.83;9.40;;;;;;;7.50;100.00;100297.75;5104147;27;20644;-74
2024/03/13 03:27:05;;;;;;;13.68;9.13;;;;;;;7.43;100.00;100279.56;5104978;27;20070;-74
2024/03/13 03:29:33;;;;;;;14.35;9.27;;;;;;;7.54;100.00;100296.72;5088669;28;20078;-73
2024/03/13 03:32:02;;;;;;;13.20;9.18;;;;;;;7.47;100.00;100286.44;5067635;27;20040;-74
2024/03/13 03:34:31;;;;;;;15.35;9.65;;;;;;;7.26;100.00;100246.78;5105279;27;20476;-75
2024/03/13 03:37:01;;;;;;;14.30;8.93;;;;;;;7.64;100.00;100310.41;5116800;27;20058;-75
2024/03/13 03:39:29;;;;;;;14.47;9.00;;;;;;;7.51;100.00;100286.28;5091216;28;20042;-74
2024/03/13 03:41:58;;;;;;;14.30;8.80;;;;;;;7.48;100.00;100280.25;5082204;27;20047;-74
2024/03/13 03:44:29;;;;;;;12.30;7.95;;;;;;;7.21;100.00;100239.97;5083725;28;20137;-74
2024/03/13 03:46:57;;;;;;;13.73;8.63;;;;;;;7.56;100.00;100296.63;5092425;27;20056;-74
2024/03/13 03:49:26;;;;;;;13.48;9.00;;;;;;;7.54;100.00;100287.97;5089270;27;20517;-75
2024/03/13 03:51:54;;;;;;;13.80;8.63;;;;;;;7.61;100.00;100298.19;5101911;27;20039;-74
2024/03/13 03:54:22;;;;;;;13.65;8.05;;;;;;;7.47;100.00;100275.91;5087919;27;20047;-75
2024/03/13 03:56:51;;;;;;;12.90;8.25;;;;;;;7.52;100.00;100290.63;5094728;27;20070;-75
2024/03/13 03:59:23;;;;;;;12.60;8.77;;;;;;;7.29;100.00;100257.19;5102774;27;20101;-75
2024/03/13 04:01:51;;;;;;;12.80;8.18;;;;;;;7.54;100.00;100306.41;5098502;27;20040;-75
2024/03/13 04:04:23;;;;;;;11.70;7.95;;;;;;;7.38;100.00;100270.06;5111525;27;20133;-74
2024/03/13 04:06:52;;;;;;;11.18;7.47;;;;;;;7.45;100.00;100286.50;5093983;27;20580;-73
2024/03/13 04:09:20;;;;;;;13.40;8.05;;;;;;;7.47;100.00;100299.63;5092711;27;20044;-75
2024/03/13 04:11:48;;;;;;;12.13;8.13;;;;;;;7.46;100.00;100290.84;5088589;27;20117;-74
2024/03/13 04:14:18;;;;;;;12.23;8.30;;;;;;;7.53;100.00;100307.31;5103139;27;20070;-74
2024/03/13 04:16:46;;;;;;;11.45;7.50;;;;;;;7.38;100.00;100277.97;5089643;27;20061;-74
2024/03/13 04:19:14;;;;;;;11.98;7.70;;;;;;;7.56;100.00;100304.53;5104806;27;20607;-75
2024/03/13 04:21:42;;;;;;;10.43;7.72;;;;;;;7.44;100.00;100287.41;5089081;27;20157;-74
2024/03/13 04:24:11;;;;;;;13.60;7.80;;;;;;;7.63;100.00;100306.06;5085457;27;20065;-75
2024/03/13 04:26:40;;;;;;;13.88;7.90;;;;;;;7.47;100.00;100278.53;5110089;27;20043;-75
2024/03/13 04:29:10;;;;;;;11.90;8.02;;;;;;;7.42;100.00;100268.16;5107741;27;20039;-75
2024/03/13 04:31:40;;;;;;;11.98;7.88;;;;;;;7.63;100.00;100306.06;5087446;27;20529;-74
2024/03/13 04:34:09;;;;;;;12.85;8.10;;;;;;;7.44;100.00;100283.91;5101306;27;20129;-75
2024/03/13 04:36:38;;;;;;;9.80;7.60;;;;;;;7.65;100.00;100314.78;5102131;27;20099;-74
2024/03/13 04:39:07;;;;;;;11.80;8.45;;;;;;;7.66;100.00;100313.84;5108441;27;20074;-74
2024/03/13 04:41:39;;;;;;;11.27;7.82;;;;;;;7.63;100.00;100308.69;5092240;27;20822;-74
2024/03/13 04:44:09;;;;;;;11.45;7.80;;;;;;;7.60;100.00;100316.69;5084249;27;20054;-74
2024/03/13 04:46:38;;;;;;;11.20;7.50;;;;;;;7.50;100.00;100303.00;5087144;27;20070;-75
2024/03/13 04:49:10;;;;;;;10.65;7.25;;;;;;;7.25;100.00;100268.75;5103813;27;20097;-75
2024/03/13 04:51:38;;;;;;;11.50;7.68;;;;;;;7.31;100.00;100284.34;5075915;27;20568;-74
2024/03/13 04:54:07;;;;;;;12.88;8.50;;;;;;;6.77;100.00;100191.53;5096712;27;20055;-74
2024/03/13 04:56:35;;;;;;;12.70;8.70;;;;;;;7.60;100.00;100333.38;5108732;27;20047;-74
2024/03/13 04:59:05;;;;;;;12.93;8.80;;;;;;;7.62;100.00;100331.53;5086874;27;20043;-74
2024/03/13 05:01:33;;;;;;;11.65;8.00;;;;;;;7.65;100.00;100339.34;5087770;27;20051;-74
2024/03/13 05:04:01;;;;;;;10.40;7.32;;;;;;;7.66;100.00;100348.97;5085111;27;20035;-75
2024/03/13 05:06:30;;;;;;;11.93;7.97;;;;;;;7.47;100.00;100310.16;5099175;27;20492;-75
2024/03/13 05:08:58;;;;;;;10.55;7.38;;;;;;;7.54;100.00;100325.72;5105039;27;20085;-74
2024/03/13 05:11:26;;;;;;;10.20;7.45;;;;;;;7.34;100.00;100292.16;5093484;27;20039;-75
2024/03/13 05:13:55;;;;;;;11.57;7.55;;;;;;;7.55;100.00;100330.06;5081548;27;20063;-75
2024/03/13 05:16:23;;;;;;;10.43;7.13;;;;;;;7.54;100.00;100333.59;5104146;27;20124;-74
2024/03/13 05:18:52;;;;;;;10.20;7.20;;;;;;;7.67;100.00;100336.66;5090301;27;20046;-74
2024/03/13 05:21:21;;;;;;;9.07;6.60;;;;;;;7.67;100.00;100349.84;5089198;27;20047;-75
2024/03/13 05:23:49;;;;;;;9.68;6.78;;;;;;;7.20;100.00;100265.44;5109526;27;21703;-74
2024/03/13 05:26:17;;;;;;;10.75;7.18;;;;;;;7.64;100.00;100348.16;5089140;27;20047;-75
2024/03/13 05:28:45;;;;;;;8.93;6.20;;;;;;;7.65;100.00;100367.47;5109877;27;20043;-75
2024/03/13 05:31:14;;;;;;;8.95;6.88;;;;;;;7.31;100.00;100300.16;5104214;27;20043;-74
2024/03/13 05:33:43;;;;;;;9.13;7.10;;;;;;;7.66;100.00;100366.56;5087016;27;20049;-74
2024/03/13 05:36:11;;;;;;;9.68;6.68;;;;;;;7.56;100.00;100338.78;5087009;27;20140;-74
2024/03/13 05:38:39;;;;;;;10.50;7.38;;;;;;;7.64;100.00;100360.47;5084271;27;20047;-74
2024/03/13 05:41:07;;;;;;;10.20;7.18;;;;;;;7.40;100.00;100312.13;5102838;27;20073;-75
2024/03/13 05:43:35;;;;;;;11.27;7.15;;;;;;;7.68;100.00;100351.56;5105071;27;20038;-74
2024/03/13 05:46:05;;;;;;;10.30;7.25;;;;;;;7.68;100.00;100349.78;5085328;27;20120;-76
2024/03/13 05:48:33;;;;;;;9.65;6.63;;;;;;;7.61;100.00;100336.88;5106246;27;20050;-73
2024/03/13 05:51:02;;;;;;;10.93;7.82;;;;;;;7.57;100.00;100332.63;5091084;27;20046;-75
2024/03/13 05:53:30;;;;;;;10.35;7.40;;;;;;;7.61;100.00;100339.50;5079534;27;20053;-74
2024/03/13 05:56:00;;;;;;;9.88;7.13;;;;;;;7.67;100.00;100344.56;5105114;27;20039;-74
2024/03/13 05:58:28;;;;;;;10.13;6.85;;;;;;;7.68;100.00;100341.03;5104647;27;20043;-75
2024/03/13 06:01:01;;;;;;;10.75;7.20;;;;;;;7.34;100.00;100286.88;5088988;27;20135;-75
2024/03/13 06:03:30;;;;;;;10.10;6.90;;;;;;;7.48;100.00;100302.19;5084557;27;20102;-74
2024/03/13 06:05:58;;;;;;;11.18;7.43;;;;;;;7.72;100.00;100359.28;5102341;27;20095;-75
2024/03/13 06:08:27;;;;;;;8.95;6.55;;;;;;;7.61;100.00;100329.81;5089654;27;20486;-74
2024/03/13 06:10:55;;;;;;;9.30;6.60;;;;;;;7.78;100.00;100360.84;5101936;27;20049;-75
2024/03/13 06:13:23;;;;;;;10.18;6.55;;;;;;;7.79;100.00;100362.56;5081641;27;20418;-74
2024/03/13 06:15:52;;;;;;;8.57;6.53;;;;;;;7.37;100.00;100296.47;5107618;27;20580;-75
2024/03/13 06:18:20;;;;;;;10.60;7.15;;;;;;;7.77;100.00;100364.41;5082966;27;20116;-76
2024/03/13 06:20:51;;;;;;;9.40;6.43;;;;;;;7.78;100.00;100363.47;5095408;27;20099;-75
2024/03/13 06:23:20;;;;;;;9.30;6.85;;;;;;;7.57;100.00;100320.28;5101455;27;20155;-74
2024/03/13 06:25:48;;;;;;;9.13;6.75;;;;;;;7.87;100.00;100371.03;5101600;27;20074;-76
2024/03/13 06:31:03;;;;;;;10.15;6.80;;;;;;;7.93;100.00;100378.75;5120830;27;20053;-75
2024/03/13 06:33:32;;;;;;;10.70;6.70;;;;;;;7.96;100.00;100364.59;5096153;27;20047;-74
2024/03/13 06:36:00;;;;;;;9.75;7.07;;;;;;;7.94;100.00;100375.19;5100707;27;20122;-74
2024/03/13 06:38:28;;;;;;;9.43;7.05;;;;;;;7.96;100.00;100375.16;5086624;27;20047;-75
2024/03/13 06:40:56;;;;;;;7.97;6.45;;;;;;;7.95;100.00;100378.69;5086213;27;20039;-75
2024/03/13 06:43:24;;;;;;;10.85;6.68;;;;;;;7.81;100.00;100359.88;5081141;27;20040;-74
2024/03/13 06:45:52;;;;;;;9.48;7.45;;;;;;;7.96;100.00;100385.69;5088766;27;20066;-74
2024/03/13 06:48:20;;;;;;;8.43;6.25;;;;;;;7.96;100.00;100383.91;5084386;28;20047;-74
2024/03/13 06:50:48;;;;;;;8.23;6.38;;;;;;;8.00;100.00;100374.97;5086902;27;20482;-74
2024/03/13 06:53:16;;;;;;;9.68;6.95;;;;;;;7.33;100.00;100276.41;5095838;27;20126;-75
2024/03/13 06:55:46;;;;;;;9.93;7.20;;;;;;;7.89;100.00;100382.41;5105504;27;20042;-74
2024/03/13 06:58:14;;;;;;;8.68;6.63;;;;;;;7.76;100.00;100360.03;5103409;27;20097;-74
2024/03/13 07:00:45;;;;;;;9.68;7.30;;;;;;;7.91;100.00;100385.84;5085436;27;20058;-74
2024/03/13 07:03:13;;;;;;;9.88;7.28;;;;;;;7.70;100.00;100341.84;5092230;27;20096;-74
2024/03/13 07:05:41;;;;;;;9.60;7.65;;;;;;;7.93;100.00;100386.66;5084390;28;20104;-75
2024/03/13 07:08:12;;;;;;;9.95;7.55;;;;;;;7.89;100.00;100361.31;5082817;28;20048;-75
2024/03/13 07:10:40;;;;;;;11.40;7.22;;;;;;;7.90;100.00;100349.00;5099895;27;20839;-74
2024/03/13 07:13:08;;;;;;;10.98;7.75;;;;;;;8.20;100.00;100394.47;5078442;27;20046;-75
2024/03/13 07:15:36;;;;;;;9.77;7.28;;;;;;;7.91;100.00;100332.25;5082261;28;20047;-74
2024/03/13 07:18:04;;;;;;;11.15;7.78;;;;;;;8.01;100.00;100345.06;5081047;28;20047;-73
2024/03/13 07:20:33;;;;;;;9.88;7.18;;;;;;;8.34;100.00;100400.16;5085098;28;20088;-75
2024/03/13 07:23:01;;;;;;;9.80;7.47;;;;;;;8.39;100.00;100404.31;5076655;27;20387;-74
2024/03/13 07:25:29;;;;;;;8.98;6.90;;;;;;;8.49;100.00;100404.84;5100779;27;20039;-74
2024/03/13 07:27:57;;;;;;;9.43;7.05;;;;;;;8.39;100.00;100401.66;5104209;27;20039;-74
2024/03/13 07:30:29;;;;;;;10.20;7.55;;;;;;;8.47;100.00;100417.22;5086313;27;20126;-73
2024/03/13 07:32:59;;;;;;;10.27;7.68;;;;;;;8.46;100.00;100415.50;5099790;27;20078;-74
2024/03/13 07:35:27;;;;;;;10.82;7.70;;;;;;;8.44;100.00;100417.34;5099034;27;20127;-74
2024/03/13 07:37:58;;;;;;;10.70;8.00;;;;;;;8.26;100.00;100392.47;5101648;27;20107;-73
2024/03/13 07:40:26;;;;;;;14.13;8.30;;;;;;;8.00;100.00;100345.97;5105802;27;20067;-74
2024/03/13 07:42:54;;;;;;;12.13;8.48;;;;;;;8.26;100.00;100397.75;5092065;27;20096;-74
2024/03/13 07:45:26;;;;;;;13.75;9.35;;;;;;;8.05;100.00;100358.97;5083779;27;20047;-75
2024/03/13 07:47:54;;;;;;;13.82;8.93;;;;;;;8.11;100.00;100369.31;5087254;27;20043;-74
2024/03/13 07:50:23;;;;;;;13.77;9.15;;;;;;;8.43;100.00;100421.75;5083138;27;20031;-75
2024/03/13 07:52:51;;;;;;;11.15;8.38;;;;;;;8.41;100.00;100413.03;5101591;27;20074;-72
2024/03/13 07:55:19;;;;;;;12.25;8.55;;;;;;;8.51;100.00;100424.09;5082499;27;20054;-74
2024/03/13 07:57:47;;;;;;;12.68;9.38;;;;;;;8.57;100.00;100428.28;5117143;27;20050;-76
2024/03/13 08:00:17;;;;;;;15.43;9.10;;;;;;;8.25;100.00;100360.88;5085646;27;20115;-74
2024/03/13 08:02:45;;;;;;;12.30;8.52;;;;;;;8.36;100.00;100388.59;5101106;27;20055;-74
2024/03/13 08:05:13;;;;;;;13.80;9.25;;;;;;;8.54;100.00;100416.06;5096658;27;20042;-74
2024/03/13 08:07:44;;;;;;;15.10;9.20;;;;;;;8.65;100.00;100431.50;5089224;27;20415;-73
2024/03/13 08:10:31;;;;;;;17.27;9.77;;;;;;;8.68;100.00;100426.94;5099529;27;20045;-74
2024/03/13 08:13:16;;;;;;;12.75;9.00;;;;;;;8.50;100.00;100380.13;5078696;27;20735;-74
2024/03/13 08:16:02;;;;;;;12.55;8.55;;;;;;;8.90;100.00;100434.03;5083780;28;20234;-74
2024/03/13 08:18:47;;;;;;;13.10;9.23;;;;;;;8.99;100.00;100429.25;5057627;27;20052;-74
2024/03/13 08:21:35;;;;;;;14.25;9.25;;;;;;;8.76;100.00;100380.00;5071635;28;20054;-73
2024/03/13 08:24:22;;;;;;;14.15;9.82;;;;;;;9.08;100.00;100430.66;5077551;27;20051;-74
2024/03/13 08:27:08;;;;;;;14.07;9.18;;;;;;;9.13;100.00;100431.31;5054103;28;20421;-74
2024/03/13 08:29:54;;;;;;;12.80;9.20;;;;;;;9.16;100.00;100439.13;5058032;28;20048;-73
2024/03/13 08:32:40;;;;;;;14.07;8.90;;;;;;;9.15;100.00;100432.13;5079890;28;20043;-74
2024/03/13 08:35:28;;;;;;;14.32;9.63;;;;;;;9.25;100.00;100441.41;5060088;27;20047;-75
2024/03/13 08:38:14;;;;;;;15.43;9.07;;;;;;;9.20;100.00;100414.31;5067219;28;20054;-74
2024/03/13 08:41:00;;;;;;;15.98;9.52;;;;;;;9.30;100.00;100415.66;5102494;27;20043;-74
2024/03/13 08:43:47;;;;;;;16.65;9.93;;;;;;;9.58;100.00;100460.31;5081471;27;20081;-75
2024/03/13 08:46:33;;;;;;;14.38;9.13;;;;;;;9.44;100.00;100423.84;5103608;27;20055;-75
2024/03/13 08:49:18;;;;;;;11.85;8.85;;;;;;;9.71;100.00;100450.06;5061251;27;20116;-76
2024/03/13 08:52:05;;;;;;;15.77;9.45;;;;;;;9.55;100.00;100422.56;5070230;27;20051;-74
2024/03/13 08:54:52;;;;;;;12.30;9.13;;;;;;;9.71;100.00;100447.44;5064115;27;20081;-76
2024/03/13 08:57:37;;;;;;;15.75;8.90;;;;;;;9.77;100.00;100455.09;5085196;28;20059;-75
2024/03/13 09:00:24;;;;;;;12.85;8.68;;;;;;;9.88;100.00;100465.22;5072361;27;20043;-74
2024/03/13 09:03:09;;;;;;;13.70;10.43;;;;;;;9.68;100.00;100431.69;5083211;27;20051;-74
2024/03/13 09:05:57;;;;;;;11.25;8.30;;;;;;;9.88;100.00;100466.09;5066775;28;20100;-75
2024/03/13 09:08:29;;;;;;;12.07;9.27;;;;;;;9.61;100.00;100432.88;5081802;28;20054;-75
2024/03/13 09:11:16;;;;;;;13.20;9.73;;;;;;;9.66;100.00;100474.06;5070614;28;20838;-74
2024/03/13 09:13:45;;;;;;;13.32;9.38;;;;;;;9.68;100.00;100484.56;5069232;27;20043;-74
2024/03/13 09:16:14;;;;;;;13.38;9.35;;;;;;;9.33;100.00;100418.16;5086378;27;20092;-73
2024/03/13 09:18:42;;;;;;;12.50;9.52;;;;;;;9.74;100.00;100474.63;5100138;27;20159;-74
2024/03/13 09:21:12;;;;;;;14.32;10.15;;;;;;;9.70;100.00;100458.94;5101308;27;20046;-74
2024/03/13 09:23:40;;;;;;;13.68;9.88;;;;;;;9.64;100.00;100443.31;5082359;27;20320;-74
2024/03/13 09:26:08;;;;;;;17.58;11.27;;;;;;;9.89;100.00;100482.81;5100396;27;20515;-74
2024/03/13 09:28:38;;;;;;;15.48;10.07;;;;;;;9.88;100.00;100486.38;5089552;27;20036;-75
2024/03/13 09:31:07;;;;;;;16.33;11.60;;;;;;;9.39;100.00;100411.78;5098380;27;20058;-75
2024/03/13 09:33:35;;;;;;;17.75;11.60;;;;;;;9.91;100.00;100484.47;5100125;27;20042;-74
2024/03/13 09:36:04;;;;;;;15.07;11.05;;;;;;;9.68;100.00;100439.63;5113141;27;20062;-75
2024/03/13 09:38:32;;;;;;;16.02;10.88;;;;;;;9.99;100.00;100489.41;5101590;27;20043;-73
2024/03/13 09:41:03;;;;;;;15.10;10.85;;;;;;;9.48;100.00;100412.25;5083544;27;20486;-74
2024/03/13 09:43:32;;;;;;;17.48;12.65;;;;;;;9.14;100.00;100361.72;5080281;27;20058;-74
2024/03/13 09:46:01;;;;;;;19.65;13.73;;;;;;;9.43;100.00;100431.88;5082675;27;20051;-76
2024/03/13 09:48:29;;;;;;;19.65;13.95;;;;;;;9.70;100.00;100486.22;5085843;27;20155;-74
2024/03/13 09:50:57;;;;;;;21.05;15.02;;;;;;;9.61;100.00;100494.53;5100736;27;20182;-74
2024/03/13 09:53:28;;;;;;;21.15;14.48;;;;;;;9.45;100.00;100467.88;5098250;27;20035;-75
2024/03/13 09:55:56;;;;;;;19.30;14.70;;;;;;;9.37;100.00;100437.41;5095543;27;20158;-74
2024/03/13 09:58:24;;;;;;;22.15;15.18;;;;;;;9.52;100.00;100457.91;5086993;27;20780;-71
2024/03/13 10:00:53;;;;;;;21.88;15.80;;;;;;;9.85;100.00;100497.94;5120580;27;20043;-73
2024/03/13 10:03:21;;;;;;;22.20;14.02;;;;;;;9.74;100.00;100485.19;5103573;27;20064;-72
2024/03/13 10:05:50;;;;;;;19.40;14.02;;;;;;;9.80;100.00;100491.97;5098760;27;20112;-74
2024/03/13 10:08:19;;;;;;;22.65;16.15;;;;;;;9.74;100.00;100482.53;5105494;27;20385;-73
2024/03/13 10:10:48;;;;;;;22.15;16.00;;;;;;;9.12;100.00;100382.09;5088405;27;20059;-74
2024/03/13 10:13:17;;;;;;;20.85;15.00;;;;;;;9.86;100.00;100504.97;5085065;27;20049;-73
2024/03/13 10:15:47;;;;;;;23.67;15.77;;;;;;;9.91;100.00;100518.88;5066257;28;20035;-76
2024/03/13 10:18:15;;;;;;;20.92;14.98;;;;;;;9.48;100.00;100441.31;5049663;28;20047;-74
2024/03/13 10:20:44;;;;;;;23.27;14.93;;;;;;;9.89;100.00;100509.28;5051002;28;20063;-75
2024/03/13 10:23:12;;;;;;;22.95;15.77;;;;;;;9.96;100.00;100510.72;5068860;27;20051;-76
2024/03/13 10:25:41;;;;;;;22.83;14.93;;;;;;;10.05;100.00;100507.69;5060400;28;20570;-74
2024/03/13 10:28:11;;;;;;;20.73;13.65;;;;;;;9.76;100.00;100450.72;5062832;28;20047;-76
2024/03/13 10:30:39;;;;;;;19.40;13.90;;;;;;;9.83;100.00;100452.19;5052172;28;20582;-73
2024/03/13 10:33:07;;;;;;;19.95;13.30;;;;;;;10.15;100.00;100509.88;5060862;28;20116;-73
2024/03/13 10:35:36;;;;;;;19.58;13.23;;;;;;;10.16;100.00;100503.66;5043228;28;20051;-75
2024/03/13 10:38:04;;;;;;;20.80;14.52;;;;;;;10.23;100.00;100514.00;5049229;28;20052;-76
2024/03/13 10:40:32;;;;;;;18.88;13.50;;;;;;;10.26;100.00;100508.56;5068360;28;20130;-73
2024/03/13 10:43:00;;;;;;;17.58;13.52;;;;;;;9.92;100.00;100449.13;5050285;27;20036;-73
2024/03/13 10:45:28;;;;;;;18.25;13.45;;;;;;;9.41;100.00;100363.22;5046007;28;20039;-74
2024/03/13 10:47:57;;;;;;;17.10;12.00;;;;;;;10.29;100.00;100519.88;5051179;28;20039;-75
2024/03/13 10:50:25;;;;;;;17.13;12.70;;;;;;;10.01;100.00;100456.69;5055852;28;20479;-73
2024/03/13 10:52:53;;;;;;;17.88;13.88;;;;;;;10.41;100.00;100505.22;5049809;28;20044;-76
2024/03/13 10:55:21;;;;;;;15.63;12.23;;;;;;;10.48;100.00;100504.91;5054735;28;20044;-74
2024/03/13 10:57:51;;;;;;;15.88;11.90;;;;;;;10.21;100.00;100465.56;5065335;28;20413;-72
2024/03/13 11:00:21;;;;;;;18.50;13.93;;;;;;;9.45;100.00;100329.56;5056439;28;20040;-74
2024/03/13 11:02:50;;;;;;;17.75;12.80;;;;;;;10.47;100.00;100500.53;5067726;28;20135;-73
2024/03/13 11:05:19;;;;;;;16.90;12.18;;;;;;;10.50;100.00;100502.19;5047585;28;20147;-74
2024/03/13 11:07:48;;;;;;;17.85;12.80;;;;;;;10.17;100.00;100444.50;5059622;28;20045;-72
2024/03/13 11:10:21;;;;;;;17.40;12.70;;;;;;;10.59;100.00;100501.75;5069255;27;20049;-73
2024/03/13 11:12:49;;;;;;;18.98;14.15;;;;;;;10.38;100.00;100452.44;5077522;27;20126;-72
2024/03/13 11:15:18;;;;;;;20.23;14.60;;;;;;;10.64;100.00;100501.56;5089324;27;20075;-70
2024/03/13 11:17:50;;;;;;;18.60;13.48;;;;;;;10.66;100.00;100507.66;5088150;27;20055;-70
2024/03/13 11:20:21;;;;;;;15.88;12.48;;;;;;;10.43;100.00;100500.72;5106776;27;20051;-72
2024/03/13 11:22:49;;;;;;;18.45;13.57;;;;;;;10.11;100.00;100487.09;5089790;27;20035;-69
2024/03/13 11:25:18;;;;;;;23.50;15.85;;;;;;;10.10;100.00;100503.03;5086728;27;20228;-70
2024/03/13 11:27:49;;;;;;;22.40;15.85;;;;;;;10.06;100.00;100518.22;5103337;27;20605;-70
2024/03/13 11:30:17;;;;;;;22.17;14.87;;;;;;;9.93;100.00;100511.69;5088343;28;20042;-70
2024/03/13 11:32:45;;;;;;;22.83;16.02;;;;;;;9.79;100.00;100503.50;5099924;27;20468;-72
2024/03/13 11:35:14;;;;;;;23.70;16.77;;;;;;;9.91;100.00;100512.72;5102713;27;20049;-70
2024/03/13 11:37:42;;;;;;;28.05;18.92;;;;;;;10.04;100.00;100512.13;5074355;27;20042;-70
2024/03/13 11:40:11;;;;;;;22.38;16.88;;;;;;;10.10;100.00;100508.31;5104286;27;20047;-70
2024/03/13 11:42:41;;;;;;;22.45;17.27;;;;;;;10.13;100.00;100505.56;5087848;27;20063;-70
2024/03/13 11:45:15;;;;;;;27.35;19.00;;;;;;;10.28;100.00;100496.13;5087523;27;20043;-71
2024/03/13 11:47:45;;;;;;;25.75;19.30;;;;;;;10.43;100.00;100498.09;5101348;27;20035;-71